createdAt,value
2023-05-19T00:02:12.841Z,9.33
2023-05-19T00:04:48.025Z,9.28
2023-05-19T00:07:29.528Z,9.27
2023-05-19T00:10:04.831Z,9.21
2023-05-19T00:12:39.103Z,9.17
2023-05-19T00:15:13.679Z,9.11
2023-05-19T00:17:46.930Z,9.14
2023-05-19T00:20:20.226Z,9.20
2023-05-19T00:22:53.392Z,9.10
2023-05-19T00:25:28.287Z,9.06
2023-05-19T00:28:02.511Z,9.04
2023-05-19T00:30:35.796Z,8.96
2023-05-19T00:33:09.058Z,8.92
2023-05-19T00:35:42.390Z,8.77
2023-05-19T00:38:15.602Z,8.84
2023-05-19T00:40:50.421Z,8.80
2023-05-19T00:43:23.954Z,8.69
2023-05-19T00:45:57.288Z,8.76
2023-05-19T00:48:30.546Z,8.75
2023-05-19T00:51:06.706Z,8.66
2023-05-19T00:53:40.139Z,8.60
2023-05-19T00:56:14.786Z,8.48
2023-05-19T00:58:48.317Z,8.45
2023-05-19T01:01:23.477Z,8.59
2023-05-19T01:03:59.294Z,8.48
2023-05-19T01:06:32.830Z,8.46
2023-05-19T01:09:06.036Z,8.42
2023-05-19T01:11:42.382Z,8.37
2023-05-19T01:14:16.690Z,8.25
2023-05-19T01:17:05.524Z,8.31
2023-05-19T01:19:57.450Z,8.32
2023-05-19T01:23:16.796Z,8.20
2023-05-19T01:26:12.900Z,8.18
2023-05-19T01:29:12.442Z,8.24
2023-05-19T01:31:49.040Z,8.07
2023-05-19T01:34:27.601Z,8.08
2023-05-19T01:37:05.784Z,8.01
2023-05-19T01:39:41.558Z,7.94
2023-05-19T01:42:16.726Z,7.74
2023-05-19T01:44:50.341Z,7.76
2023-05-19T01:47:25.784Z,7.78
2023-05-19T01:49:59.115Z,7.83
2023-05-19T01:52:33.186Z,7.88
2023-05-19T01:55:07.578Z,7.70
2023-05-19T01:57:50.671Z,7.71
2023-05-19T02:00:35.954Z,7.60
2023-05-19T02:03:31.490Z,7.63
2023-05-19T02:06:20.037Z,7.67
2023-05-19T02:09:00.515Z,7.56
2023-05-19T02:11:38.897Z,7.46
2023-05-19T02:14:20.337Z,7.50
2023-05-19T02:16:54.856Z,7.50
2023-05-19T02:19:33.077Z,7.54
2023-05-19T02:22:06.517Z,7.47
2023-05-19T02:24:41.420Z,7.44
2023-05-19T02:27:16.826Z,7.47
2023-05-19T02:29:50.161Z,7.36
2023-05-19T02:32:23.371Z,7.34
2023-05-19T02:34:58.053Z,7.24
2023-05-19T02:37:32.610Z,7.19
2023-05-19T02:40:07.121Z,7.16
2023-05-19T02:42:40.223Z,7.23
2023-05-19T02:45:13.466Z,7.13
2023-05-19T02:47:47.725Z,7.12
2023-05-19T02:50:22.621Z,7.13
2023-05-19T02:52:55.903Z,7.13
2023-05-19T02:55:29.800Z,7.13
2023-05-19T02:58:03.040Z,7.18
2023-05-19T03:00:36.249Z,7.15
2023-05-19T03:03:10.474Z,7.15
2023-05-19T03:05:46.010Z,7.15
2023-05-19T03:08:19.769Z,7.13
2023-05-19T03:10:52.968Z,7.09
2023-05-19T03:13:26.236Z,7.05
2023-05-19T03:15:59.777Z,6.93
2023-05-19T03:18:35.154Z,6.87
2023-05-19T03:21:09.740Z,6.88
2023-05-19T03:23:42.936Z,6.82
2023-05-19T03:26:16.359Z,6.84
2023-05-19T03:28:49.685Z,6.85
2023-05-19T03:31:22.907Z,6.88
2023-05-19T03:33:57.889Z,6.84
2023-05-19T03:36:33.103Z,6.81
2023-05-19T03:39:07.416Z,6.82
2023-05-19T03:41:40.615Z,6.85
2023-05-19T03:44:13.789Z,6.79
2023-05-19T03:46:47.157Z,6.91
2023-05-19T03:49:40.293Z,6.92
2023-05-19T03:52:17.457Z,7.06
2023-05-19T03:55:00.759Z,7.01
2023-05-19T03:57:34.032Z,6.89
2023-05-19T04:00:09.201Z,6.95
2023-05-19T04:02:45.440Z,6.98
2023-05-19T04:05:19.549Z,7.15
2023-05-19T04:07:54.145Z,7.02
2023-05-19T04:10:27.453Z,7.03
2023-05-19T04:13:01.313Z,7.11
2023-05-19T04:15:34.894Z,7.20
2023-05-19T04:18:08.193Z,7.24
2023-05-19T04:20:41.663Z,7.19
2023-05-19T04:23:16.192Z,7.24
2023-05-19T04:25:52.417Z,7.23
2023-05-19T04:28:25.794Z,7.19
2023-05-19T04:31:00.328Z,7.23
2023-05-19T04:33:34.000Z,7.30
2023-05-19T04:36:10.770Z,7.32
2023-05-19T04:38:47.867Z,7.34
2023-05-19T04:41:23.109Z,7.43
2023-05-19T04:43:57.588Z,7.59
2023-05-19T04:46:31.061Z,7.69
2023-05-19T04:49:04.588Z,7.73
2023-05-19T04:51:41.409Z,8.21
2023-05-19T04:54:16.695Z,9.14
2023-05-19T04:56:50.334Z,9.91
2023-05-19T04:59:24.227Z,10.52
2023-05-19T05:01:57.788Z,10.84
2023-05-19T05:04:33.678Z,11.27
2023-05-19T05:07:07.151Z,11.73
2023-05-19T05:09:41.818Z,12.15
2023-05-19T05:12:16.689Z,12.50
2023-05-19T05:14:50.333Z,12.97
2023-05-19T05:17:25.689Z,13.31
2023-05-19T05:19:59.458Z,13.61
2023-05-19T05:22:33.320Z,13.74
2023-05-19T05:25:09.740Z,13.73
2023-05-19T05:27:44.080Z,13.28
2023-05-19T05:30:17.361Z,12.44
2023-05-19T05:32:52.076Z,13.01
2023-05-19T05:35:39.379Z,13.14
2023-05-19T05:38:14.281Z,12.60
2023-05-19T05:40:49.694Z,12.56
2023-05-19T05:43:23.188Z,12.80
2023-05-19T05:46:02.164Z,12.97
2023-05-19T05:48:36.734Z,13.38
2023-05-19T05:51:11.891Z,13.41
2023-05-19T05:53:52.637Z,13.46
2023-05-19T05:56:28.700Z,13.94
2023-05-19T05:59:02.048Z,14.41
2023-05-19T06:01:35.949Z,14.81
2023-05-19T06:04:11.190Z,15.22
2023-05-19T06:06:44.433Z,15.59
2023-05-19T06:09:20.611Z,15.71
2023-05-19T06:11:55.420Z,15.94
2023-05-19T06:14:29.067Z,15.77
2023-05-19T06:17:31.591Z,15.44
2023-05-19T06:20:06.479Z,15.30
2023-05-19T06:22:39.743Z,14.71
2023-05-19T06:25:13.968Z,14.63
2023-05-19T06:27:48.666Z,14.72
2023-05-19T06:30:22.819Z,14.40
2023-05-19T06:33:05.721Z,14.49
2023-05-19T06:35:39.663Z,14.58
2023-05-19T06:38:14.090Z,14.28
2023-05-19T06:40:49.712Z,13.96
2023-05-19T06:43:25.750Z,14.67
2023-05-19T06:46:03.569Z,15.09
2023-05-19T06:48:38.440Z,15.53
2023-05-19T06:51:11.762Z,16.08
2023-05-19T06:53:46.897Z,16.10
2023-05-19T06:56:20.118Z,16.34
2023-05-19T06:58:54.681Z,16.69
2023-05-19T07:01:32.401Z,16.93
2023-05-19T07:04:06.386Z,16.40
2023-05-19T07:06:39.656Z,16.40
2023-05-19T07:09:13.975Z,16.49
2023-05-19T07:11:47.875Z,16.03
2023-05-19T07:14:22.501Z,16.10
2023-05-19T07:16:55.870Z,16.47
2023-05-19T07:19:29.319Z,16.62
2023-05-19T07:22:02.512Z,16.85
2023-05-19T07:24:35.726Z,17.17
2023-05-19T07:27:08.984Z,16.96
2023-05-19T07:29:43.576Z,17.20
2023-05-19T07:32:16.822Z,17.71
2023-05-19T07:34:49.989Z,17.47
2023-05-19T07:37:23.239Z,17.40
2023-05-19T07:39:56.413Z,17.29
2023-05-19T07:42:29.644Z,17.06
2023-05-19T07:45:04.269Z,16.99
2023-05-19T07:47:37.684Z,17.19
2023-05-19T07:50:11.271Z,16.83
2023-05-19T07:52:44.581Z,16.97
2023-05-19T07:55:19.263Z,17.40
2023-05-19T07:57:52.550Z,17.12
2023-05-19T08:00:27.544Z,17.20
2023-05-19T08:03:01.885Z,17.44
2023-05-19T08:05:36.121Z,17.87
2023-05-19T08:08:09.542Z,17.02
2023-05-19T08:10:42.743Z,17.70
2023-05-19T08:13:18.521Z,17.81
2023-05-19T08:15:54.410Z,17.74
2023-05-19T08:18:28.192Z,18.01
2023-05-19T08:21:01.457Z,17.91
2023-05-19T08:23:34.665Z,17.88
2023-05-19T08:26:07.779Z,18.18
2023-05-19T08:28:41.102Z,18.39
2023-05-19T08:31:15.736Z,18.22
2023-05-19T08:33:48.988Z,18.31
2023-05-19T08:36:23.080Z,18.74
2023-05-19T08:38:56.335Z,18.84
2023-05-19T08:41:29.576Z,18.22
2023-05-19T08:44:02.838Z,18.08
2023-05-19T08:46:37.750Z,17.87
2023-05-19T08:49:14.104Z,17.60
2023-05-19T08:51:58.605Z,18.29
2023-05-19T08:54:40.088Z,18.67
2023-05-19T08:57:14.750Z,18.90
2023-05-19T08:59:49.213Z,18.84
2023-05-19T09:02:24.486Z,17.85
2023-05-19T09:04:58.556Z,18.41
2023-05-19T09:07:34.857Z,18.43
2023-05-19T09:10:09.267Z,18.35
2023-05-19T09:12:42.569Z,19.38
2023-05-19T09:15:19.149Z,19.30
2023-05-19T09:18:07.984Z,19.38
2023-05-19T09:20:45.643Z,19.85
2023-05-19T09:23:19.435Z,18.89
2023-05-19T09:25:54.394Z,19.39
2023-05-19T09:28:29.555Z,19.23
2023-05-19T09:31:04.687Z,18.87
2023-05-19T09:33:42.856Z,19.44
2023-05-19T09:36:17.946Z,20.04
2023-05-19T09:38:51.178Z,19.59
2023-05-19T09:41:25.004Z,19.99
2023-05-19T09:43:58.132Z,19.61
2023-05-19T09:46:31.374Z,19.35
2023-05-19T09:49:11.706Z,19.65
2023-05-19T09:51:45.814Z,19.38
2023-05-19T09:54:21.483Z,19.41
2023-05-19T09:57:00.120Z,19.86
2023-05-19T09:59:34.138Z,20.06
2023-05-19T10:02:13.465Z,19.57
2023-05-19T10:04:49.800Z,20.22
2023-05-19T10:07:25.640Z,20.22
2023-05-19T10:10:00.105Z,20.74
2023-05-19T10:12:33.990Z,20.67
2023-05-19T10:15:10.626Z,20.77
2023-05-19T10:17:45.429Z,20.47
2023-05-19T10:20:20.305Z,20.25
2023-05-19T10:22:53.616Z,18.82
2023-05-19T10:25:27.007Z,19.28
2023-05-19T10:28:06.183Z,19.59
2023-05-19T10:30:42.829Z,20.13
2023-05-19T10:33:18.622Z,20.60
2023-05-19T10:36:11.060Z,21.34
2023-05-19T10:38:53.323Z,20.97
2023-05-19T10:41:38.957Z,20.22
2023-05-19T10:44:24.445Z,20.84
2023-05-19T10:46:57.950Z,21.59
2023-05-19T10:49:36.736Z,21.98
2023-05-19T10:52:23.286Z,21.99
2023-05-19T10:54:58.456Z,21.27
2023-05-19T10:57:33.339Z,20.74
2023-05-19T11:00:31.742Z,20.46
2023-05-19T11:03:15.638Z,20.56
2023-05-19T11:05:51.091Z,20.98
2023-05-19T11:08:34.399Z,21.18
2023-05-19T11:11:15.257Z,21.30
2023-05-19T11:13:49.419Z,20.73
2023-05-19T11:16:30.537Z,20.20
2023-05-19T11:19:03.717Z,20.81
2023-05-19T11:21:44.659Z,21.78
2023-05-19T11:24:36.566Z,23.00
2023-05-19T11:27:26.074Z,21.49
2023-05-19T11:30:01.911Z,21.51
2023-05-19T11:32:39.350Z,22.56
2023-05-19T11:35:12.752Z,23.18
2023-05-19T11:37:46.947Z,23.32
2023-05-19T11:40:22.998Z,22.75
2023-05-19T11:42:56.261Z,23.10
2023-05-19T11:45:32.660Z,22.97
2023-05-19T11:48:10.485Z,21.21
2023-05-19T11:50:44.661Z,20.66
2023-05-19T11:53:19.806Z,21.35
2023-05-19T11:55:53.334Z,21.59
2023-05-19T11:58:28.364Z,21.79
2023-05-19T12:01:05.344Z,21.72
2023-05-19T12:03:39.980Z,21.75
2023-05-19T12:06:17.445Z,21.42
2023-05-19T12:08:52.676Z,22.30
2023-05-19T12:11:25.938Z,22.46
2023-05-19T12:14:00.555Z,23.38
2023-05-19T12:16:36.891Z,22.91
2023-05-19T12:19:11.496Z,22.77
2023-05-19T12:21:45.211Z,22.67
2023-05-19T12:24:19.316Z,23.26
2023-05-19T12:26:52.503Z,23.46
2023-05-19T12:29:29.520Z,23.95
2023-05-19T12:32:04.082Z,23.24
2023-05-19T12:34:39.979Z,22.12
2023-05-19T12:37:13.261Z,22.02
2023-05-19T12:39:47.059Z,22.60
2023-05-19T12:42:20.708Z,23.05
2023-05-19T12:44:55.659Z,22.98
2023-05-19T12:47:34.047Z,22.81
2023-05-19T12:50:10.850Z,22.50
2023-05-19T12:52:45.803Z,22.02
2023-05-19T12:55:20.591Z,22.10
2023-05-19T12:57:58.083Z,22.46
2023-05-19T13:00:32.815Z,23.10
2023-05-19T13:03:08.611Z,22.59
2023-05-19T13:05:44.681Z,22.00
2023-05-19T13:08:20.148Z,22.35
2023-05-19T13:10:53.468Z,23.18
2023-05-19T13:13:26.663Z,23.70
2023-05-19T13:15:59.867Z,23.69
2023-05-19T13:18:32.971Z,23.62
2023-05-19T13:21:07.574Z,24.14
2023-05-19T13:23:40.703Z,23.62
2023-05-19T13:26:14.291Z,22.88
2023-05-19T13:28:47.866Z,23.67
2023-05-19T13:31:21.091Z,23.80
2023-05-19T13:33:54.374Z,23.69
2023-05-19T13:36:28.928Z,23.11
2023-05-19T13:39:02.337Z,22.12
2023-05-19T13:41:35.702Z,22.32
2023-05-19T13:44:08.882Z,23.11
2023-05-19T13:46:45.423Z,22.44
2023-05-19T13:49:19.985Z,23.12
2023-05-19T13:51:57.863Z,23.10
2023-05-19T13:54:31.177Z,23.04
2023-05-19T13:57:04.451Z,22.86
2023-05-19T13:59:48.984Z,22.65
2023-05-19T14:02:31.066Z,22.47
2023-05-19T14:05:04.847Z,22.98
2023-05-19T14:07:39.454Z,22.87
2023-05-19T14:10:12.898Z,22.23
2023-05-19T14:13:14.161Z,22.49
2023-05-19T14:15:39.373Z,22.98
2023-05-19T14:18:12.746Z,23.01
2023-05-19T14:20:46.034Z,23.22
2023-05-19T14:23:21.626Z,23.73
2023-05-19T14:25:54.903Z,23.39
2023-05-19T14:28:28.135Z,22.98
2023-05-19T14:31:01.356Z,23.16
2023-05-19T14:33:35.595Z,22.84
2023-05-19T14:36:09.538Z,23.11
2023-05-19T14:38:44.158Z,23.41
2023-05-19T14:41:17.403Z,23.65
2023-05-19T14:43:50.610Z,23.04
2023-05-19T14:46:23.828Z,22.60
2023-05-19T14:48:57.102Z,22.40
2023-05-19T14:51:30.307Z,22.50
2023-05-19T14:54:05.068Z,22.46
2023-05-19T14:56:38.199Z,22.95
2023-05-19T14:59:11.409Z,23.19
2023-05-19T15:01:44.739Z,22.75
2023-05-19T15:04:18.168Z,23.22
2023-05-19T15:07:05.766Z,23.08
2023-05-19T15:09:43.709Z,22.80
2023-05-19T15:12:16.858Z,22.90
2023-05-19T15:14:50.099Z,22.74
2023-05-19T15:17:23.374Z,22.51
2023-05-19T15:19:56.561Z,22.64
2023-05-19T15:22:29.773Z,22.77
2023-05-19T15:25:04.320Z,22.59
2023-05-19T15:27:37.532Z,22.63
2023-05-19T15:30:11.096Z,22.50
2023-05-19T15:32:44.357Z,22.86
2023-05-19T15:35:17.643Z,23.18
2023-05-19T15:37:50.833Z,23.28
2023-05-19T15:40:25.577Z,23.28
2023-05-19T15:42:58.761Z,23.07
2023-05-19T15:45:32.049Z,22.60
2023-05-19T15:48:05.753Z,22.61
2023-05-19T15:50:39.093Z,22.91
2023-05-19T15:53:12.251Z,22.47
2023-05-19T15:55:46.794Z,22.88
2023-05-19T15:58:19.915Z,23.35
2023-05-19T16:00:53.165Z,23.21
2023-05-19T16:03:26.497Z,23.28
2023-05-19T16:05:59.755Z,22.78
2023-05-19T16:08:33.209Z,22.78
2023-05-19T16:11:07.895Z,22.40
2023-05-19T16:13:41.095Z,21.71
2023-05-19T16:16:14.296Z,22.27
2023-05-19T16:18:48.289Z,22.44
2023-05-19T16:21:22.145Z,22.72
2023-05-19T16:23:55.298Z,22.90
2023-05-19T16:26:30.260Z,22.90
2023-05-19T16:29:03.416Z,22.64
2023-05-19T16:31:36.633Z,22.84
2023-05-19T16:34:09.840Z,22.61
2023-05-19T16:36:43.133Z,22.56
2023-05-19T16:39:16.469Z,22.54
2023-05-19T16:41:51.124Z,22.26
2023-05-19T16:44:24.648Z,22.39
2023-05-19T16:46:57.895Z,22.27
2023-05-19T16:49:31.069Z,22.30
2023-05-19T16:52:04.599Z,21.99
2023-05-19T16:54:38.135Z,21.93
2023-05-19T16:57:14.739Z,22.29
2023-05-19T16:59:49.600Z,22.63
2023-05-19T17:02:22.919Z,22.57
2023-05-19T17:04:56.432Z,22.83
2023-05-19T17:07:30.159Z,22.72
2023-05-19T17:10:03.300Z,22.59
2023-05-19T17:12:37.857Z,22.61
2023-05-19T17:15:11.877Z,21.98
2023-05-19T17:17:45.059Z,21.27
2023-05-19T17:20:18.274Z,21.24
2023-05-19T17:22:51.704Z,21.46
2023-05-19T17:25:24.988Z,21.76
2023-05-19T17:27:59.634Z,21.75
2023-05-19T17:30:33.062Z,21.39
2023-05-19T17:33:06.514Z,21.65
2023-05-19T17:35:41.184Z,21.74
2023-05-19T17:38:14.434Z,21.54
2023-05-19T17:40:47.534Z,21.88
2023-05-19T17:43:22.018Z,22.06
2023-05-19T17:45:55.718Z,21.54
2023-05-19T17:48:28.894Z,21.41
2023-05-19T17:51:03.887Z,21.27
2023-05-19T17:53:38.907Z,21.52
2023-05-19T17:56:15.538Z,21.63
2023-05-19T17:58:50.935Z,21.37
2023-05-19T18:01:25.808Z,21.17
2023-05-19T18:03:59.772Z,21.15
2023-05-19T18:06:33.424Z,21.15
2023-05-19T18:09:09.154Z,20.90
2023-05-19T18:11:44.765Z,20.76
2023-05-19T18:14:19.403Z,20.37
2023-05-19T18:16:52.636Z,20.16
2023-05-19T18:19:26.047Z,19.99
2023-05-19T18:21:59.184Z,19.98
2023-05-19T18:24:32.371Z,19.99
2023-05-19T18:27:05.906Z,19.92
2023-05-19T18:29:40.454Z,19.71
2023-05-19T18:32:14.618Z,19.64
2023-05-19T18:34:47.937Z,19.59
2023-05-19T18:37:21.201Z,19.53
2023-05-19T18:39:54.324Z,19.46
2023-05-19T18:42:27.663Z,19.32
2023-05-19T18:45:02.161Z,19.24
2023-05-19T18:47:35.308Z,19.18
2023-05-19T18:50:10.925Z,19.08
2023-05-19T18:52:44.089Z,18.89
2023-05-19T18:55:17.363Z,18.80
2023-05-19T18:57:51.429Z,18.77
2023-05-19T19:00:28.041Z,18.67
2023-05-19T19:03:01.792Z,18.62
2023-05-19T19:05:35.050Z,18.53
2023-05-19T19:08:08.271Z,18.52
2023-05-19T19:10:41.506Z,18.38
2023-05-19T19:13:14.655Z,18.32
2023-05-19T19:15:49.171Z,18.26
2023-05-19T19:18:22.452Z,18.15
2023-05-19T19:20:57.320Z,18.08
2023-05-19T19:23:30.475Z,18.04
2023-05-19T19:26:03.651Z,17.92
2023-05-19T19:28:37.054Z,17.82
2023-05-19T19:31:11.608Z,17.75
2023-05-19T19:33:45.040Z,17.68
2023-05-19T19:36:18.228Z,17.60
2023-05-19T19:38:51.455Z,17.55
2023-05-19T19:41:25.373Z,17.41
2023-05-19T19:43:58.456Z,17.37
2023-05-19T19:46:32.994Z,17.31
2023-05-19T19:49:06.309Z,17.22
2023-05-19T19:51:39.442Z,17.09
2023-05-19T19:54:12.584Z,17.03
2023-05-19T19:56:45.999Z,16.92
2023-05-19T19:59:19.172Z,16.86
2023-05-19T20:01:53.759Z,16.83
2023-05-19T20:04:27.868Z,16.79
2023-05-19T20:07:01.461Z,16.75
2023-05-19T20:09:34.600Z,16.64
2023-05-19T20:12:08.418Z,16.56
2023-05-19T20:14:41.562Z,16.52
2023-05-19T20:17:16.145Z,16.45
2023-05-19T20:19:49.281Z,16.38
2023-05-19T20:22:22.448Z,16.31
2023-05-19T20:24:55.612Z,16.28
2023-05-19T20:27:28.786Z,16.21
2023-05-19T20:30:02.024Z,16.14
2023-05-19T20:32:36.649Z,16.10
2023-05-19T20:35:10.266Z,16.03
2023-05-19T20:37:43.481Z,15.96
2023-05-19T20:40:16.808Z,15.96
2023-05-19T20:42:50.116Z,15.90
2023-05-19T20:45:23.355Z,15.87
2023-05-19T20:47:59.414Z,15.80
2023-05-19T20:50:32.994Z,15.79
2023-05-19T20:53:07.367Z,15.76
2023-05-19T20:55:41.278Z,15.77
2023-05-19T20:58:14.951Z,15.66
2023-05-19T21:00:48.747Z,15.61
2023-05-19T21:03:23.704Z,15.57
2023-05-19T21:05:57.606Z,15.53
2023-05-19T21:08:30.926Z,15.47
2023-05-19T21:11:04.116Z,15.46
2023-05-19T21:13:39.133Z,15.47
2023-05-19T21:16:12.384Z,15.42
2023-05-19T21:18:46.997Z,15.35
2023-05-19T21:21:20.273Z,15.28
2023-05-19T21:23:53.567Z,15.28
2023-05-19T21:26:27.444Z,15.23
2023-05-19T21:29:00.820Z,15.28
2023-05-19T21:31:35.295Z,15.25
2023-05-19T21:34:09.853Z,15.18
2023-05-19T21:36:42.947Z,15.12
2023-05-19T21:39:16.496Z,15.08
2023-05-19T21:41:51.293Z,15.06
2023-05-19T21:44:25.254Z,14.99
2023-05-19T21:46:58.618Z,15.02
2023-05-19T21:49:33.252Z,14.93
2023-05-19T21:52:09.473Z,14.92
2023-05-19T21:54:42.706Z,14.95
2023-05-19T21:57:15.920Z,14.92
2023-05-19T21:59:49.066Z,14.92
2023-05-19T22:02:22.296Z,14.88
2023-05-19T22:04:57.332Z,14.88
2023-05-19T22:07:30.585Z,14.87
2023-05-19T22:10:03.888Z,14.84
2023-05-19T22:12:39.557Z,14.82
2023-05-19T22:15:13.575Z,14.84
2023-05-19T22:17:47.155Z,14.81
2023-05-19T22:20:21.796Z,14.82
2023-05-19T22:22:55.061Z,14.81
2023-05-19T22:25:28.307Z,14.71
2023-05-19T22:28:02.254Z,14.69
2023-05-19T22:30:38.431Z,14.60
2023-05-19T22:33:13.374Z,14.55
2023-05-19T22:35:48.249Z,14.55
2023-05-19T22:38:21.510Z,14.45
2023-05-19T22:40:54.895Z,14.42
2023-05-19T22:43:28.086Z,14.41
2023-05-19T22:46:01.431Z,14.51
2023-05-19T22:48:34.635Z,14.49
2023-05-19T22:51:09.513Z,14.45
2023-05-19T22:53:44.671Z,14.30
2023-05-19T22:56:17.932Z,14.23
2023-05-19T22:58:51.077Z,14.16
2023-05-19T23:01:24.353Z,14.06
2023-05-19T23:03:57.581Z,14.04
2023-05-19T23:06:32.341Z,13.96
2023-05-19T23:09:06.149Z,13.94
2023-05-19T23:11:39.382Z,13.82
2023-05-19T23:14:12.564Z,13.80
2023-05-19T23:16:46.193Z,13.87
2023-05-19T23:19:20.397Z,13.83
2023-05-19T23:21:55.065Z,13.80
2023-05-19T23:24:28.258Z,13.77
2023-05-19T23:27:01.569Z,13.84
2023-05-19T23:29:37.165Z,13.82
2023-05-19T23:32:10.402Z,13.77
2023-05-19T23:34:43.706Z,13.70
2023-05-19T23:37:21.290Z,13.66
2023-05-19T23:39:54.511Z,13.59
2023-05-19T23:42:27.751Z,13.59
2023-05-19T23:45:03.621Z,13.56
2023-05-19T23:47:36.878Z,13.56
2023-05-19T23:50:12.498Z,13.45
2023-05-19T23:52:47.105Z,13.32
2023-05-19T23:55:20.419Z,13.22
2023-05-19T23:57:53.597Z,13.05
